Time;durP1;ratioP1;P1;durP2;ratioP2;P2;SDS_P1;SDS_P2;PMS_P1;PMS_P2;Temp;Humidity;BMP_temperature;BMP_pressure;BME280_temperature;BME280_humidity;BME280_pressure;Samples;Min_cycle;Max_cycle;Signal;HPM_P1;HPM_P2
2022/05/17 00:00:38;;;;;;;7.65;2.83;;;;;;;18.82;40.33;100324.38;4992865;28;96818;-81
2022/05/17 00:03:04;;;;;;;11.27;2.55;;;;;;;18.94;40.58;100347.47;4976213;28;97170;-78
2022/05/17 00:05:30;;;;;;;5.85;3.17;;;;;;;18.98;40.21;100349.81;4959009;28;101172;-77
2022/05/17 00:07:56;;;;;;;4.13;2.10;;;;;;;19.00;40.15;100334.59;4959886;28;101252;-80
2022/05/17 00:10:22;;;;;;;5.47;2.50;;;;;;;18.95;40.25;100344.69;4957009;28;96777;-77
2022/05/17 00:12:56;;;;;;;9.48;2.50;;;;;;;18.84;40.54;100331.28;4966806;28;97381;-77
2022/05/17 00:15:22;;;;;;;5.38;2.22;;;;;;;18.75;40.75;100326.59;4975252;28;101167;-77
2022/05/17 00:17:49;;;;;;;6.72;2.30;;;;;;;18.92;40.50;100330.78;4956616;28;102130;-77
2022/05/17 00:20:15;;;;;;;6.82;2.65;;;;;;;18.71;41.07;100328.59;4971492;28;97327;-77
2022/05/17 00:22:41;;;;;;;7.50;2.58;;;;;;;18.78;40.78;100339.69;4954663;28;97445;-77
2022/05/17 00:25:08;;;;;;;9.48;2.42;;;;;;;18.82;40.56;100327.91;4955729;28;101307;-77
2022/05/17 00:27:33;;;;;;;5.03;2.50;;;;;;;18.89;40.69;100328.31;4952675;28;101325;-77
2022/05/17 00:29:59;;;;;;;7.25;2.38;;;;;;;18.75;40.78;100331.91;4975598;28;96890;-78
2022/05/17 00:32:25;;;;;;;9.02;2.78;;;;;;;18.67;40.91;100324.41;4959939;28;98222;-77
2022/05/17 00:34:50;;;;;;;7.75;2.30;;;;;;;18.59;41.34;100323.22;4992268;28;97951;-77
2022/05/17 00:37:16;;;;;;;4.68;2.28;;;;;;;18.67;40.97;100327.06;4962325;28;101469;-78
2022/05/17 00:39:42;;;;;;;8.27;2.55;;;;;;;18.57;41.23;100323.34;4973197;28;96724;-77
2022/05/17 00:42:07;;;;;;;6.47;2.38;;;;;;;18.51;41.39;100315.78;4962872;28;97321;-77
2022/05/17 00:44:42;;;;;;;8.23;2.78;;;;;;;18.65;41.17;100317.53;4988758;28;101282;-77
2022/05/17 00:47:32;;;;;;;8.40;2.47;;;;;;;18.44;41.52;100301.19;4976205;28;100968;-77
2022/05/17 00:49:58;;;;;;;12.70;2.83;;;;;;;18.61;41.52;100324.00;4971901;28;96805;-81
2022/05/17 00:52:27;;;;;;;10.50;2.50;;;;;;;18.53;41.49;100312.06;4974710;28;97048;-77
2022/05/17 00:54:56;;;;;;;7.45;2.65;;;;;;;18.64;41.08;100316.66;4971765;28;101073;-77
2022/05/17 00:57:44;;;;;;;8.00;2.50;;;;;;;18.56;41.22;100316.34;4989070;28;101367;-77
2022/05/17 01:00:13;;;;;;;9.73;2.78;;;;;;;18.66;41.06;100316.56;4986664;28;97113;-77
2022/05/17 01:02:45;;;;;;;6.20;1.90;;;;;;;18.49;41.16;100297.28;4993055;28;97242;-77
2022/05/17 01:05:10;;;;;;;7.13;2.65;;;;;;;18.44;41.42;100306.50;4957098;28;100960;-77
2022/05/17 01:07:44;;;;;;;8.88;2.50;;;;;;;18.49;41.36;100320.34;4975792;28;101614;-78
2022/05/17 01:10:10;;;;;;;6.50;2.75;;;;;;;18.23;41.29;100275.09;4973929;28;97346;-77
2022/05/17 01:12:40;;;;;;;6.05;2.53;;;;;;;18.44;41.86;100314.47;4992992;28;96905;-78
2022/05/17 01:15:07;;;;;;;7.15;2.55;;;;;;;18.45;41.66;100303.75;4974627;28;97870;-77
2022/05/17 01:17:37;;;;;;;4.55;2.03;;;;;;;18.38;41.55;100298.94;4972508;28;101087;-77
2022/05/17 01:20:06;;;;;;;8.13;2.78;;;;;;;18.33;41.62;100286.84;4974447;28;97173;-77
2022/05/17 01:22:32;;;;;;;5.18;2.40;;;;;;;18.33;42.01;100299.28;4972993;28;97177;-77
2022/05/17 01:24:57;;;;;;;9.27;3.03;;;;;;;18.35;41.73;100296.50;4974715;28;97989;-81
2022/05/17 01:27:27;;;;;;;4.60;2.47;;;;;;;18.35;41.85;100299.16;4971058;28;99775;-77
2022/05/17 01:29:53;;;;;;;5.38;2.40;;;;;;;18.40;41.86;100305.03;4942135;28;97556;-77
2022/05/17 01:32:18;;;;;;;5.78;2.83;;;;;;;18.21;41.82;100274.38;4969114;28;97652;-77
2022/05/17 01:34:44;;;;;;;7.72;1.95;;;;;;;18.30;41.86;100294.16;4991534;28;97693;-77
2022/05/17 01:37:12;;;;;;;5.38;2.10;;;;;;;18.28;41.91;100294.25;4992167;28;97342;-78
2022/05/17 01:39:38;;;;;;;6.07;2.40;;;;;;;18.28;42.12;100294.25;4959076;28;96808;-78
2022/05/17 01:42:04;;;;;;;6.47;2.58;;;;;;;18.25;42.07;100289.16;4972411;28;96791;-77
2022/05/17 01:44:30;;;;;;;3.78;2.10;;;;;;;18.25;41.82;100293.63;4970913;28;97812;-79
2022/05/17 01:46:55;;;;;;;4.35;2.42;;;;;;;18.22;41.80;100292.00;4970452;28;97400;-77
2022/05/17 01:49:21;;;;;;;5.15;2.38;;;;;;;18.16;42.21;100296.88;4969233;28;96807;-77
2022/05/17 01:51:47;;;;;;;11.50;2.00;;;;;;;18.05;42.34;100298.41;4972389;28;98455;-76
2022/05/17 01:54:12;;;;;;;7.00;2.67;;;;;;;17.91;42.34;100268.41;4990639;28;97518;-77
2022/05/17 01:56:38;;;;;;;10.23;2.05;;;;;;;18.03;42.44;100294.16;4972101;28;97257;-77
2022/05/17 01:59:03;;;;;;;5.45;2.35;;;;;;;18.08;42.21;100292.06;4955784;28;96745;-77
2022/05/17 02:01:29;;;;;;;5.82;2.22;;;;;;;17.98;42.50;100289.16;4988723;28;97090;-77
2022/05/17 02:03:54;;;;;;;7.50;3.05;;;;;;;18.00;42.26;100284.59;4956003;28;101288;-77
2022/05/17 02:06:20;;;;;;;5.50;2.10;;;;;;;17.89;42.99;100284.47;4999613;28;101462;-77
2022/05/17 02:08:45;;;;;;;6.80;2.72;;;;;;;17.83;42.91;100283.06;4977872;28;100476;-77
2022/05/17 02:11:11;;;;;;;5.88;2.22;;;;;;;17.85;43.06;100285.59;4938677;28;97059;-77
2022/05/17 02:13:41;;;;;;;7.82;2.25;;;;;;;17.93;42.57;100280.66;4937322;28;101528;-77
2022/05/17 02:16:09;;;;;;;5.27;2.67;;;;;;;17.72;42.87;100258.13;4947986;28;101625;-77
2022/05/17 02:18:35;;;;;;;3.65;2.20;;;;;;;17.77;42.86;100279.88;4951796;28;96941;-77
2022/05/17 02:21:01;;;;;;;6.80;2.40;;;;;;;17.73;42.98;100279.25;4935056;28;97002;-83
2022/05/17 02:23:27;;;;;;;6.25;2.50;;;;;;;17.71;42.88;100281.13;4938562;28;101788;-77
2022/05/17 02:25:53;;;;;;;6.78;2.20;;;;;;;17.69;43.27;100277.75;4955130;28;97377;-77
2022/05/17 02:28:19;;;;;;;6.95;2.03;;;;;;;17.69;43.13;100269.78;4971356;28;97014;-77
2022/05/17 02:30:45;;;;;;;4.35;2.55;;;;;;;17.61;43.14;100266.75;4938704;28;96861;-77
2022/05/17 02:33:10;;;;;;;6.85;2.45;;;;;;;17.57;43.43;100267.88;4931863;28;101131;-77
2022/05/17 02:35:36;;;;;;;7.30;2.60;;;;;;;17.69;43.17;100276.91;4931042;28;100695;-78
2022/05/17 02:38:02;;;;;;;7.47;2.28;;;;;;;17.58;43.26;100270.47;4954850;28;96712;-81
2022/05/17 02:40:27;;;;;;;6.80;2.33;;;;;;;17.51;43.47;100271.81;4954896;28;97275;-79
2022/05/17 02:42:53;;;;;;;6.97;1.98;;;;;;;17.53;43.44;100266.41;4954916;28;97613;-77
2022/05/17 02:45:18;;;;;;;4.88;1.95;;;;;;;17.41;43.89;100270.69;4971598;28;97344;-77
2022/05/17 02:47:44;;;;;;;3.92;2.35;;;;;;;17.56;43.37;100267.03;4971478;28;96691;-77
2022/05/17 02:50:10;;;;;;;6.15;2.30;;;;;;;17.58;43.07;100280.22;4965268;28;97044;-77
2022/05/17 02:52:36;;;;;;;7.18;2.13;;;;;;;17.42;43.58;100270.59;4936463;28;100945;-77
2022/05/17 02:55:03;;;;;;;3.53;1.90;;;;;;;17.44;43.86;100286.41;4950274;28;100886;-80
2022/05/17 02:57:28;;;;;;;5.07;2.20;;;;;;;17.44;44.14;100286.41;4965053;28;96680;-78
2022/05/17 02:59:54;;;;;;;8.07;2.30;;;;;;;17.42;43.88;100278.56;4954659;28;96897;-77
2022/05/17 03:02:19;;;;;;;10.68;2.80;;;;;;;17.34;44.18;100272.03;4937803;28;101500;-77
2022/05/17 03:04:45;;;;;;;9.50;2.95;;;;;;;17.42;44.37;100277.69;4970315;28;97366;-77
2022/05/17 03:07:11;;;;;;;6.70;2.20;;;;;;;17.48;44.14;100279.94;4951542;28;97328;-76
2022/05/17 03:09:36;;;;;;;8.73;2.25;;;;;;;17.41;44.32;100281.28;4972354;28;96961;-81
2022/05/17 03:12:02;;;;;;;8.25;2.28;;;;;;;17.33;44.71;100289.72;5023068;28;98235;-81
2022/05/17 03:14:29;;;;;;;10.23;2.50;;;;;;;17.35;44.50;100281.69;4990175;28;98177;-78
2022/05/17 03:16:55;;;;;;;8.50;2.47;;;;;;;17.33;44.63;100288.88;4957817;28;97059;-77
2022/05/17 03:19:20;;;;;;;6.72;2.60;;;;;;;17.19;44.98;100273.81;4989580;28;96955;-78
2022/05/17 03:21:47;;;;;;;11.40;2.90;;;;;;;17.15;44.95;100257.25;4957008;28;100383;-77
2022/05/17 03:24:12;;;;;;;4.38;2.17;;;;;;;17.17;45.02;100271.28;4951966;28;101329;-78
2022/05/17 03:26:38;;;;;;;6.45;3.17;;;;;;;17.22;44.74;100281.63;4974057;28;96814;-77
2022/05/17 03:29:04;;;;;;;7.32;2.40;;;;;;;17.12;44.91;100259.25;4973699;28;96988;-81
2022/05/17 03:31:29;;;;;;;13.85;2.92;;;;;;;17.08;45.25;100273.66;4973130;28;101429;-77
2022/05/17 03:33:55;;;;;;;14.25;2.45;;;;;;;16.96;44.90;100251.41;4953633;28;101524;-77
2022/05/17 03:36:20;;;;;;;9.35;3.15;;;;;;;17.15;45.12;100289.06;4969532;28;96762;-77
2022/05/17 03:38:46;;;;;;;6.35;2.58;;;;;;;17.18;45.27;100288.88;4973201;28;97005;-77
2022/05/17 03:41:12;;;;;;;5.07;2.60;;;;;;;17.11;45.50;100266.34;4952806;28;101758;-77
2022/05/17 03:43:38;;;;;;;9.93;2.95;;;;;;;17.10;45.31;100295.59;4954065;28;101233;-79
2022/05/17 03:46:06;;;;;;;7.45;2.35;;;;;;;17.11;45.46;100286.72;4955802;28;97213;-81
2022/05/17 03:48:32;;;;;;;7.32;2.40;;;;;;;17.13;45.49;100290.13;4973797;28;97408;-77
2022/05/17 03:50:58;;;;;;;8.20;3.13;;;;;;;17.09;45.44;100280.66;4973863;28;97374;-79
2022/05/17 03:53:23;;;;;;;9.15;2.90;;;;;;;17.14;45.80;100294.50;4960011;28;101336;-78
2022/05/17 03:55:49;;;;;;;6.88;2.72;;;;;;;17.12;45.54;100296.38;4972065;28;96916;-76
2022/05/17 03:58:14;;;;;;;5.80;2.10;;;;;;;16.94;45.66;100277.16;4989587;28;97249;-77
2022/05/17 04:00:40;;;;;;;6.28;2.55;;;;;;;17.18;45.27;100294.19;4973591;28;97590;-77
2022/05/17 04:03:06;;;;;;;7.07;2.70;;;;;;;17.22;45.27;100286.03;4973468;28;101693;-80
2022/05/17 04:05:31;;;;;;;7.13;2.67;;;;;;;17.09;45.33;100294.75;4969763;28;97808;-77
2022/05/17 04:07:57;;;;;;;5.60;2.45;;;;;;;17.23;45.30;100317.78;4940728;28;97512;-79
2022/05/17 04:10:23;;;;;;;14.48;2.95;;;;;;;17.11;45.73;100307.94;4952787;28;101505;-77
2022/05/17 04:12:48;;;;;;;6.93;2.45;;;;;;;17.11;45.85;100306.13;4956859;28;101541;-78
2022/05/17 04:15:18;;;;;;;8.85;2.70;;;;;;;17.11;45.72;100286.72;4972240;28;97217;-77
2022/05/17 04:17:44;;;;;;;6.82;2.92;;;;;;;17.24;45.75;100300.91;4967574;28;97049;-77
2022/05/17 04:20:12;;;;;;;9.27;2.70;;;;;;;17.44;45.02;100302.31;4957881;28;101471;-77
2022/05/17 04:22:45;;;;;;;9.70;3.30;;;;;;;17.39;45.24;100281.41;4992952;28;97878;-77
2022/05/17 04:25:11;;;;;;;5.18;2.97;;;;;;;17.41;45.57;100305.19;4972197;28;96909;-77
2022/05/17 04:27:37;;;;;;;7.65;3.13;;;;;;;17.38;45.52;100295.59;4963520;28;97388;-77
2022/05/17 04:30:04;;;;;;;7.00;2.72;;;;;;;17.42;45.38;100307.75;4973022;28;98077;-77
2022/05/17 04:32:30;;;;;;;5.38;2.40;;;;;;;17.45;45.62;100309.31;4973681;28;101615;-78
2022/05/17 04:34:55;;;;;;;7.30;2.90;;;;;;;17.33;45.84;100300.34;4987951;28;96935;-77
2022/05/17 04:37:21;;;;;;;20.67;3.60;;;;;;;17.48;45.64;100310.94;4957880;28;97031;-77
2022/05/17 04:39:47;;;;;;;7.97;2.70;;;;;;;17.29;45.91;100312.09;4954365;28;101332;-77
2022/05/17 04:42:12;;;;;;;9.52;2.83;;;;;;;17.32;46.23;100321.66;4970164;28;97941;-78
2022/05/17 04:44:39;;;;;;;6.28;2.60;;;;;;;17.08;46.79;100308.13;4991165;28;97380;-77
2022/05/17 04:47:07;;;;;;;11.02;3.05;;;;;;;17.11;46.87;100322.06;4992717;28;97401;-78
2022/05/17 04:49:32;;;;;;;11.73;2.40;;;;;;;17.07;47.11;100325.81;4971047;28;98262;-78
2022/05/17 04:51:58;;;;;;;9.75;2.83;;;;;;;17.19;46.89;100318.91;4988010;28;97374;-77
2022/05/17 04:54:24;;;;;;;7.55;2.70;;;;;;;17.19;47.21;100321.56;4991832;28;97285;-77
2022/05/17 04:56:49;;;;;;;6.78;2.63;;;;;;;17.22;47.02;100317.88;4976419;28;97087;-77
2022/05/17 04:59:14;;;;;;;7.50;2.97;;;;;;;17.09;46.72;100300.06;4991513;28;97698;-78
2022/05/17 05:01:40;;;;;;;12.80;3.15;;;;;;;17.17;46.68;100318.16;4958983;28;101263;-78
2022/05/17 05:04:06;;;;;;;7.70;2.97;;;;;;;16.94;47.30;100314.25;4967965;28;97280;-79
2022/05/17 05:06:31;;;;;;;8.40;2.70;;;;;;;17.05;47.12;100318.94;4970554;28;96924;-76
2022/05/17 05:08:59;;;;;;;6.32;2.78;;;;;;;17.23;47.03;100322.25;4969511;28;101658;-79
2022/05/17 05:11:24;;;;;;;8.10;3.08;;;;;;;17.25;47.37;100323.88;4960322;28;101426;-81
2022/05/17 05:13:50;;;;;;;9.20;2.47;;;;;;;17.27;47.33;100327.25;4969446;28;96844;-79
2022/05/17 05:16:16;;;;;;;4.75;2.47;;;;;;;17.35;47.16;100327.63;4967827;28;97077;-74
2022/05/17 05:18:42;;;;;;;7.70;2.90;;;;;;;17.33;47.13;100323.38;4955575;28;100407;-74
2022/05/17 05:21:13;;;;;;;10.07;3.08;;;;;;;17.28;47.29;100328.97;4956475;28;101629;-74
2022/05/17 05:23:40;;;;;;;8.50;2.88;;;;;;;17.24;47.17;100308.03;4984287;28;96788;-74
2022/05/17 05:26:07;;;;;;;13.52;3.50;;;;;;;17.46;46.92;100326.13;4982429;28;97094;-74
2022/05/17 05:28:33;;;;;;;5.90;2.83;;;;;;;17.49;46.99;100331.25;4970708;28;97894;-75
2022/05/17 05:31:00;;;;;;;8.57;2.95;;;;;;;17.58;46.75;100336.81;4977296;28;97515;-75
2022/05/17 05:33:26;;;;;;;6.38;2.95;;;;;;;17.61;46.74;100343.75;4972164;28;97114;-75
2022/05/17 05:35:52;;;;;;;10.65;3.10;;;;;;;17.59;46.61;100337.66;4974137;28;97099;-75
2022/05/17 05:38:18;;;;;;;9.35;2.88;;;;;;;17.47;46.64;100326.00;4964146;28;101301;-73
2022/05/17 05:40:44;;;;;;;8.55;3.40;;;;;;;17.57;46.19;100329.81;4990487;28;97180;-80
2022/05/17 05:43:10;;;;;;;11.55;3.10;;;;;;;17.59;46.70;100346.47;4967854;28;97083;-79
2022/05/17 05:45:35;;;;;;;7.60;2.92;;;;;;;17.61;47.02;100333.97;4958923;28;96838;-81
2022/05/17 05:48:01;;;;;;;9.40;3.10;;;;;;;17.73;46.63;100332.34;4973446;28;101317;-82
2022/05/17 05:50:27;;;;;;;7.90;2.80;;;;;;;17.75;46.45;100346.38;4991077;28;98251;-81
2022/05/17 05:53:01;;;;;;;13.48;3.17;;;;;;;17.95;46.20;100341.59;4985800;28;97395;-82
2022/05/17 05:55:26;;;;;;;7.97;3.00;;;;;;;17.82;46.44;100354.81;4971878;28;97260;-81
2022/05/17 05:57:52;;;;;;;8.05;2.58;;;;;;;17.94;46.44;100347.88;4971444;28;98839;-81
2022/05/17 06:00:20;;;;;;;9.38;2.80;;;;;;;18.07;46.31;100346.16;4971354;28;100216;-81
2022/05/17 06:02:45;;;;;;;5.75;3.00;;;;;;;18.28;45.88;100338.56;4975733;28;96742;-81
2022/05/17 06:05:11;;;;;;;9.75;3.00;;;;;;;18.51;45.20;100350.34;4957933;28;97231;-81
2022/05/17 06:07:37;;;;;;;10.23;3.47;;;;;;;18.60;45.04;100352.38;4962041;28;101069;-81
2022/05/17 06:10:07;;;;;;;13.65;2.97;;;;;;;18.75;45.01;100354.03;4988729;28;97427;-81
2022/05/17 06:12:32;;;;;;;11.48;3.20;;;;;;;19.02;44.58;100347.78;4969982;28;97201;-81
2022/05/17 06:14:58;;;;;;;18.10;3.80;;;;;;;19.26;44.32;100328.41;4955506;28;96778;-81
2022/05/17 06:17:27;;;;;;;11.23;3.63;;;;;;;19.91;43.34;100346.88;4991250;28;100827;-80
2022/05/17 06:19:59;;;;;;;11.90;3.15;;;;;;;19.98;42.99;100350.78;4958376;28;101589;-81
2022/05/17 06:22:26;;;;;;;14.57;3.40;;;;;;;19.97;43.18;100351.75;4971454;28;97237;-81
2022/05/17 06:24:52;;;;;;;10.57;3.50;;;;;;;20.38;42.23;100350.50;4971064;28;97065;-81
2022/05/17 06:27:17;;;;;;;14.25;3.13;;;;;;;21.10;40.97;100339.72;4991346;28;97589;-81
2022/05/17 06:29:43;;;;;;;15.15;3.40;;;;;;;21.29;40.84;100341.78;4973010;28;101726;-79
2022/05/17 06:32:13;;;;;;;13.43;3.47;;;;;;;21.11;40.88;100344.09;4975335;28;96655;-74
2022/05/17 06:34:39;;;;;;;12.00;3.30;;;;;;;20.70;41.30;100345.44;4973296;28;96983;-74
2022/05/17 06:37:06;;;;;;;10.93;3.60;;;;;;;20.36;41.96;100344.44;4974182;28;98059;-74
2022/05/17 06:39:32;;;;;;;9.93;3.17;;;;;;;20.02;42.14;100338.94;4973356;28;101342;-74
2022/05/17 06:41:58;;;;;;;13.70;3.53;;;;;;;19.78;42.71;100338.03;4970038;28;97150;-74
2022/05/17 06:44:25;;;;;;;13.93;3.50;;;;;;;19.98;42.87;100360.59;4989205;28;96974;-74
2022/05/17 06:46:50;;;;;;;7.85;3.08;;;;;;;19.72;43.06;100344.66;4991586;28;97449;-74
2022/05/17 06:49:16;;;;;;;11.57;3.10;;;;;;;19.46;43.68;100341.19;4970662;28;97306;-74
2022/05/17 06:51:42;;;;;;;12.98;3.80;;;;;;;19.66;43.45;100363.75;4966161;28;96767;-74
2022/05/17 06:54:08;;;;;;;12.95;3.88;;;;;;;19.73;43.60;100356.19;4973274;28;97410;-75
2022/05/17 06:56:34;;;;;;;20.65;4.07;;;;;;;19.48;44.31;100349.06;4964640;28;99159;-74
2022/05/17 06:59:02;;;;;;;14.27;3.65;;;;;;;19.56;44.49;100355.53;4945523;28;101298;-74
2022/05/17 07:01:27;;;;;;;18.17;3.75;;;;;;;19.58;44.28;100361.63;4987800;28;97806;-74
2022/05/17 07:03:53;;;;;;;9.25;3.42;;;;;;;19.47;44.45;100364.19;4989447;28;96806;-74
2022/05/17 07:06:19;;;;;;;18.23;3.58;;;;;;;19.39;44.57;100369.19;4991016;28;97654;-74
2022/05/17 07:08:47;;;;;;;10.00;3.35;;;;;;;19.34;44.56;100371.31;4990213;28;97887;-74
2022/05/17 07:13:57;;;;;;;19.17;3.90;;;;;;;19.21;44.72;100369.50;4990848;28;96968;-74
2022/05/17 07:16:22;;;;;;;13.77;4.07;;;;;;;19.07;45.19;100350.13;4982148;28;100200;-74
2022/05/17 07:18:48;;;;;;;8.25;3.40;;;;;;;18.93;45.51;100369.69;4987540;28;97903;-74
2022/05/17 07:21:14;;;;;;;10.88;4.03;;;;;;;18.84;45.64;100341.06;4989882;28;96892;-73
2022/05/17 07:23:40;;;;;;;9.95;3.67;;;;;;;18.98;45.82;100376.41;4957234;28;96979;-74
2022/05/17 07:26:08;;;;;;;13.98;3.85;;;;;;;19.05;45.91;100375.97;4956448;28;100827;-74
2022/05/17 07:28:47;;;;;;;14.38;3.75;;;;;;;18.97;46.33;100373.88;4973877;28;97987;-75
2022/05/17 07:31:14;;;;;;;18.92;3.72;;;;;;;18.94;45.96;100374.94;4991772;28;97871;-72
2022/05/17 07:33:40;;;;;;;10.55;3.90;;;;;;;18.69;46.02;100357.06;4974532;28;98050;-72
2022/05/17 07:36:08;;;;;;;10.10;3.67;;;;;;;18.91;46.08;100375.13;4965092;28;101226;-72
2022/05/17 07:38:34;;;;;;;7.95;3.20;;;;;;;18.82;45.92;100361.59;4982613;28;97606;-72
2022/05/17 07:41:00;;;;;;;9.38;3.63;;;;;;;18.84;46.22;100375.66;4968816;28;97426;-72
2022/05/17 07:43:26;;;;;;;10.30;3.70;;;;;;;18.85;46.14;100386.19;4999556;28;97020;-73
2022/05/17 07:45:53;;;;;;;8.43;3.17;;;;;;;18.78;46.63;100380.41;4988593;28;97853;-72
2022/05/17 07:48:21;;;;;;;15.15;4.43;;;;;;;18.82;46.48;100388.19;5010286;27;97853;-72
2022/05/17 07:50:48;;;;;;;8.18;3.72;;;;;;;18.62;46.88;100387.69;4951560;28;97358;-72
2022/05/17 07:53:15;;;;;;;15.55;3.95;;;;;;;18.70;46.40;100392.47;4983788;28;97297;-72
2022/05/17 07:55:42;;;;;;;13.27;3.67;;;;;;;18.61;47.10;100375.34;4987313;28;97971;-72
2022/05/17 07:58:08;;;;;;;5.93;3.15;;;;;;;18.78;46.53;100395.53;4966302;28;101282;-72
2022/05/17 08:00:35;;;;;;;6.35;3.25;;;;;;;18.82;46.36;100401.47;4956177;28;97032;-72
2022/05/17 08:03:00;;;;;;;8.27;3.95;;;;;;;18.83;46.23;100404.06;4986167;28;97007;-72
2022/05/17 08:05:27;;;;;;;10.88;3.90;;;;;;;18.85;46.05;100409.25;4971981;28;101424;-72
2022/05/17 08:07:53;;;;;;;9.63;3.08;;;;;;;18.79;46.62;100410.50;4968046;28;98094;-79
2022/05/17 08:10:20;;;;;;;8.35;3.50;;;;;;;18.77;46.81;100410.63;4978534;28;97256;-80
2022/05/17 08:12:46;;;;;;;12.40;4.15;;;;;;;18.81;46.55;100411.28;4992825;28;96895;-80
2022/05/17 08:15:11;;;;;;;11.60;4.18;;;;;;;18.89;46.84;100416.09;4988782;28;97375;-79
2022/05/17 08:17:37;;;;;;;11.90;3.80;;;;;;;18.85;46.79;100414.56;4987943;28;97545;-80
2022/05/17 08:20:09;;;;;;;6.07;3.42;;;;;;;18.86;47.11;100414.47;4987097;28;96837;-79
2022/05/17 08:22:45;;;;;;;10.55;3.50;;;;;;;18.90;47.95;100418.63;4959904;28;96974;-80
2022/05/17 08:27:57;;;;;;;10.00;3.53;;;;;;;19.19;47.37;100432.63;4971316;28;100893;-81
2022/05/17 08:30:25;;;;;;;16.25;4.13;;;;;;;19.16;46.45;100424.84;4975944;28;97146;-81
2022/05/17 08:35:45;;;;;;;10.70;3.45;;;;;;;19.13;46.03;100437.50;4987283;28;100756;-80
2022/05/17 08:38:14;;;;;;;8.30;3.55;;;;;;;19.13;46.42;100427.72;4954664;28;101059;-80
2022/05/17 08:41:18;;;;;;;16.65;4.18;;;;;;;19.20;46.56;100433.50;4999412;28;97247;-80
2022/05/17 08:43:55;;;;;;;9.57;3.72;;;;;;;18.98;46.23;100440.25;4978650;28;98121;-80
2022/05/17 08:46:26;;;;;;;10.77;4.10;;;;;;;19.11;46.35;100440.28;4949173;28;101667;-83
2022/05/17 08:49:23;;;;;;;13.85;4.95;;;;;;;19.16;46.51;100437.31;4992514;28;97502;-80
2022/05/17 08:51:59;;;;;;;13.88;4.68;;;;;;;19.18;46.77;100443.38;4984338;28;97563;-81
2022/05/17 08:54:55;;;;;;;18.42;4.25;;;;;;;19.20;46.75;100434.34;4982492;28;96860;-80
2022/05/17 08:57:38;;;;;;;11.13;4.18;;;;;;;19.22;47.52;100450.19;4970831;28;101008;-79
2022/05/17 09:00:05;;;;;;;8.80;3.88;;;;;;;19.13;47.31;100456.13;4959089;28;101660;-80
2022/05/17 09:02:42;;;;;;;19.95;4.00;;;;;;;19.16;47.00;100453.25;4952807;28;97538;-79
2022/05/17 09:05:28;;;;;;;9.48;3.65;;;;;;;19.25;46.77;100454.44;4976647;28;97296;-76
2022/05/17 09:08:03;;;;;;;10.98;3.63;;;;;;;19.31;46.35;100457.53;4988159;28;97481;-77
2022/05/17 09:10:48;;;;;;;11.30;3.97;;;;;;;19.15;46.27;100438.28;4987169;28;97453;-73
2022/05/17 09:13:25;;;;;;;12.63;4.88;;;;;;;19.25;46.59;100465.94;4986606;28;96995;-74
2022/05/17 09:15:53;;;;;;;21.30;5.07;;;;;;;19.28;46.69;100464.88;4973420;28;96865;-73
2022/05/17 09:18:19;;;;;;;19.17;4.85;;;;;;;19.30;46.52;100457.66;4976933;28;98056;-72
2022/05/17 09:20:44;;;;;;;23.83;5.50;;;;;;;19.11;46.50;100442.06;4974382;28;97689;-73
2022/05/17 09:23:11;;;;;;;24.73;4.63;;;;;;;19.29;46.54;100461.28;4974821;28;98100;-73
2022/05/17 09:25:51;;;;;;;16.70;4.60;;;;;;;19.29;46.09;100456.81;4971650;28;97052;-75
2022/05/17 09:28:23;;;;;;;13.23;3.65;;;;;;;19.36;46.49;100460.75;4983713;28;97411;-73
2022/05/17 09:30:48;;;;;;;;;;;;;;;19.30;46.81;100462.97;4978228;28;99981;-73
2022/05/17 09:33:20;;;;;;;14.60;4.00;;;;;;;19.33;46.80;100463.63;4980701;28;96909;-73
2022/05/17 09:35:57;;;;;;;19.48;4.35;;;;;;;19.25;46.95;100446.47;4967660;28;96977;-73
2022/05/17 09:38:24;;;;;;;15.10;3.92;;;;;;;19.34;46.60;100443.16;4988555;28;101480;-73
2022/05/17 09:40:51;;;;;;;11.70;4.00;;;;;;;19.36;46.43;100442.09;4969268;28;101233;-73
2022/05/17 09:43:25;;;;;;;13.82;3.90;;;;;;;19.45;46.65;100464.59;4993526;28;97355;-74
2022/05/17 09:46:00;;;;;;;15.18;4.07;;;;;;;19.35;46.73;100460.88;4984997;28;97018;-76
2022/05/17 09:54:29;;;;;;;11.13;4.78;;;;;;;19.35;46.71;100459.03;4987953;28;96895;-79
2022/05/17 09:57:30;;;;;;;12.88;4.47;;;;;;;19.35;46.72;100468.84;4993177;28;98051;-79
2022/05/17 10:00:08;;;;;;;13.00;3.53;;;;;;;19.29;47.04;100454.16;4996820;28;98089;-78
2022/05/17 10:03:00;;;;;;;16.48;4.10;;;;;;;19.39;47.31;100481.81;4994189;28;97854;-79
2022/05/17 10:05:40;;;;;;;15.05;4.13;;;;;;;19.33;47.80;100457.44;4987427;28;97324;-80
2022/05/17 10:08:25;;;;;;;12.43;3.90;;;;;;;19.39;47.98;100483.63;4984137;28;97926;-79
2022/05/17 10:11:05;;;;;;;29.13;16.40;;;;;;;19.31;48.14;100465.53;4961909;28;98121;-79
2022/05/17 10:13:39;;;;;;;40.40;20.67;;;;;;;19.43;48.40;100477.13;4999657;28;97138;-78
2022/05/17 10:16:09;;;;;;;23.70;10.85;;;;;;;19.34;48.73;100489.25;4970753;28;96911;-79
2022/05/17 10:18:53;;;;;;;20.40;10.02;;;;;;;19.47;48.49;100493.78;4974173;28;96973;-78
2022/05/17 10:21:44;;;;;;;18.95;11.38;;;;;;;19.40;48.77;100496.84;4984061;28;101369;-79
2022/05/17 10:24:23;;;;;;;19.40;10.33;;;;;;;19.29;49.60;100499.38;4983724;28;101350;-79
2022/05/17 10:27:38;;;;;;;15.65;7.25;;;;;;;19.29;50.93;100498.53;4994274;28;96847;-78
2022/05/17 10:30:20;;;;;;;11.73;5.55;;;;;;;19.38;51.43;100495.25;4966122;28;97018;-81
2022/05/17 10:32:57;;;;;;;17.35;5.32;;;;;;;19.20;51.39;100476.91;4959469;28;101547;-83
2022/05/17 10:35:35;;;;;;;11.43;4.20;;;;;;;19.19;52.38;100491.16;4989292;28;101490;-84
2022/05/17 10:38:14;;;;;;;13.48;4.63;;;;;;;19.12;51.80;100489.88;4984590;28;97104;-84
2022/05/17 10:40:46;;;;;;;10.32;3.90;;;;;;;19.03;52.07;100474.53;4979044;28;97001;-84
2022/05/17 10:43:50;;;;;;;10.95;3.95;;;;;;;19.20;52.21;100511.50;4982114;28;97667;-84
2022/05/17 10:46:20;;;;;;;17.58;4.60;;;;;;;19.09;53.72;100519.34;4967826;28;101177;-84
2022/05/17 10:48:55;;;;;;;17.45;4.93;;;;;;;19.06;54.14;100524.88;4942045;28;97275;-83
2022/05/17 10:51:35;;;;;;;14.80;4.00;;;;;;;19.12;53.57;100508.50;4972951;28;97462;-84
2022/05/17 10:54:19;;;;;;;11.13;4.45;;;;;;;19.21;53.85;100515.00;4983275;28;101450;-83
2022/05/17 10:57:18;;;;;;;14.07;4.28;;;;;;;19.23;54.78;100529.06;4945375;28;100495;-83
2022/05/17 10:59:44;;;;;;;18.60;4.53;;;;;;;19.37;53.93;100515.69;4991135;28;96692;-84
2022/05/17 11:02:31;;;;;;;15.32;4.80;;;;;;;19.53;53.93;100506.66;4976593;28;98072;-84
2022/05/17 11:05:02;;;;;;;18.85;4.38;;;;;;;19.60;53.67;100513.25;4987689;28;98547;-84
2022/05/17 11:07:47;;;;;;;12.67;3.83;;;;;;;19.68;53.47;100517.13;4986781;28;101350;-84
2022/05/17 11:10:37;;;;;;;16.67;5.22;;;;;;;19.63;54.32;100524.56;4973566;28;97248;-84
2022/05/17 11:13:23;;;;;;;20.55;5.00;;;;;;;19.42;55.32;100513.56;4987769;28;96838;-84
2022/05/17 11:15:58;;;;;;;14.13;5.53;;;;;;;19.47;55.99;100531.88;4973084;28;101024;-84
2022/05/17 11:18:45;;;;;;;15.88;5.15;;;;;;;19.48;56.39;100520.28;4940020;28;101180;-84
2022/05/17 11:21:18;;;;;;;14.90;4.60;;;;;;;19.62;56.31;100538.81;4993184;28;97130;-84
2022/05/17 11:24:06;;;;;;;14.43;4.57;;;;;;;19.84;56.39;100540.06;4983508;28;96845;-84
2022/05/17 11:26:53;;;;;;;10.88;4.57;;;;;;;20.04;55.67;100538.66;4983724;28;100893;-85
2022/05/17 11:29:55;;;;;;;18.65;5.00;;;;;;;20.09;55.28;100542.69;4968898;28;99851;-82
2022/05/17 11:32:26;;;;;;;;;;;;;;;20.28;54.91;100536.09;4958066;28;97425;-84
2022/05/17 11:34:56;;;;;;;19.58;6.03;;;;;;;20.41;53.80;100541.38;4985237;28;96912;-81
2022/05/17 11:37:33;;;;;;;16.52;4.93;;;;;;;20.64;53.13;100545.94;4949895;28;101106;-82
2022/05/17 11:40:07;;;;;;;15.80;4.95;;;;;;;20.65;52.86;100536.97;4983548;28;97496;-81
2022/05/17 11:45:50;;;;;;;16.42;5.13;;;;;;;20.91;52.31;100550.22;4988935;28;97194;-80
2022/05/17 11:48:18;;;;;;;13.13;3.95;;;;;;;21.03;51.31;100554.63;4967956;28;97535;-81